Gabo Island, Victoria

5:21 AM AEST on July 28, 2016 (GMT +1000)
Main Wharf, Mallacoota, Vic, Australia | | Change Station

Elev 29 ft 37.55 °S, 149.76 °E | Updated 21 seconds ago

Clear
Clear
47.9 °F
Feels Like 48 °F
N
2.6
Wind Variable Wind from WSW
Gusts 4.0 mph

Today
High -- | Low -- °F
--% Chance of Precip.
Yesterday
High -- | Low -- °F
Precip. -- in
Pressure 30.09 in
Visibility 6.2 miles
Clouds
Windchill 48 °F
Dew Point 37 °F
Humidity 66%
Rainfall 0.00 in
Snow Depth Not available.
7:03 AM 5:10 PM
Last Quarter, 40% visible
METAR YMER 271900Z AUTO 31003KT 9999 // NCD 08/03 Q1019
Pressure 30.09 in
Visibility 6.2 miles
Clouds
Windchill 48 °F
Dew Point 37 °F
Humidity 66%
Rainfall 0.00 in
Snow Depth Not available.
7:03 AM 5:10 PM
Last Quarter, 40% visible
METAR YMER 271900Z AUTO 31003KT 9999 // NCD 08/03 Q1019

10-Day Weather Forecast

No radar image for this location.
×

Almanac

Astronomy

Jul. 28, 2016 Rise Set
Actual Time
Civil Twilight
Nautical Twilight
Astronomical Twilight
Moon
Length of Visible Light
Length of Day
Tomorrow will be .
, % of the Moon is Illuminated

Today's Extremes

Country Highs Country Lows

Community

WunderPhotos

Upload Photos

1,927,915 photos uploaded!

WunderBlog® & News

Nearby

Air Quality

  Air Quality AQ Index Pollutant
Not available.

Snow Depth

Station Depth Elevation

Earthquake Activity

City Distance Mag. Time & Date
Minimum magnitude displayed is 2.5.

Coastal Water Temperatures

Place Temperature

Stations

Nearby Weather Stations

Station Location Temp. Windchill Dew Point Humidity Wind Precip. Elev Updated Type